Time;durP1;ratioP1;P1;durP2;ratioP2;P2;SDS_P1;SDS_P2;PMS_P1;PMS_P2;Temp;Humidity;BMP_temperature;BMP_pressure;BME280_temperature;BME280_humidity;BME280_pressure;Samples;Min_cycle;Max_cycle;Signal;HPM_P1;HPM_P2
2022/10/22 00:01:33;;;;;;;7.97;6.47;;;;;;;6.93;82.59;100000.34;5095020;28;20312;-65
2022/10/22 00:03:59;;;;;;;9.45;6.40;;;;;;;6.94;83.34;100002.94;5094404;28;20459;-65
2022/10/22 00:06:24;;;;;;;11.98;7.28;;;;;;;6.95;82.73;99999.50;5090196;28;20024;-65
2022/10/22 00:08:50;;;;;;;9.40;6.45;;;;;;;6.91;83.20;99998.66;5107011;28;20020;-65
2022/10/22 00:11:18;;;;;;;9.50;7.00;;;;;;;6.93;83.07;100000.34;5088871;28;20055;-65
2022/10/22 00:13:45;;;;;;;9.82;6.95;;;;;;;6.90;83.24;99996.09;5099885;28;20099;-65
2022/10/22 00:16:11;;;;;;;10.95;6.90;;;;;;;6.86;82.89;99994.38;5097847;28;20017;-66
2022/10/22 00:18:38;;;;;;;10.30;7.38;;;;;;;6.86;82.67;99995.22;5086381;28;20036;-65
2022/10/22 00:21:06;;;;;;;9.60;7.03;;;;;;;6.78;82.20;99981.50;5086213;28;20080;-65
2022/10/22 00:23:32;;;;;;;8.18;6.38;;;;;;;6.85;82.19;99987.50;5099058;28;20330;-65
2022/10/22 00:25:58;;;;;;;10.00;6.82;;;;;;;6.89;82.46;99994.38;5091504;28;20056;-65
2022/10/22 00:28:23;;;;;;;7.57;6.30;;;;;;;6.86;82.17;99992.66;5099240;28;20036;-64
2022/10/22 00:30:59;;;;;;;9.95;6.60;;;;;;;6.87;83.21;99989.22;5095176;28;20024;-65
2022/10/22 00:33:26;;;;;;;9.25;6.90;;;;;;;6.86;82.58;99986.66;5105368;28;20036;-65
2022/10/22 00:35:51;;;;;;;10.32;7.00;;;;;;;6.85;81.97;99985.78;5105959;28;20042;-65
2022/10/22 00:38:17;;;;;;;8.50;6.72;;;;;;;6.78;82.94;99970.34;5104284;28;20023;-65
2022/10/22 00:40:43;;;;;;;8.73;6.53;;;;;;;6.85;83.06;99985.78;5090463;28;20048;-64
2022/10/22 00:43:13;;;;;;;9.63;6.50;;;;;;;6.77;82.46;99969.50;5087947;28;20020;-65
2022/10/22 00:45:40;;;;;;;10.80;7.13;;;;;;;6.86;82.24;99987.50;5088887;28;20031;-65
2022/10/22 00:48:19;;;;;;;8.32;6.53;;;;;;;6.84;82.71;99980.63;5103836;28;20039;-65
2022/10/22 00:50:49;;;;;;;9.10;6.53;;;;;;;6.85;82.27;99972.91;5084639;28;20024;-64
2022/10/22 00:53:21;;;;;;;7.88;5.90;;;;;;;6.74;83.24;99960.06;5102073;28;20039;-65
2022/10/22 00:55:52;;;;;;;9.45;7.22;;;;;;;6.76;83.81;99959.22;5090933;28;20055;-66
2022/10/22 00:58:20;;;;;;;7.57;6.45;;;;;;;6.72;83.49;99958.34;5085019;28;20447;-65
2022/10/22 01:00:47;;;;;;;8.15;6.38;;;;;;;6.79;83.76;99970.34;5083486;28;20067;-66
2022/10/22 01:03:13;;;;;;;10.02;7.07;;;;;;;6.80;84.62;99973.75;5085140;28;20048;-65
2022/10/22 01:06:00;;;;;;;8.93;6.63;;;;;;;6.81;84.17;99972.91;5092285;28;20024;-65
2022/10/22 01:08:44;;;;;;;10.15;6.45;;;;;;;6.81;84.39;99972.91;5104026;28;20024;-64
2022/10/22 01:11:21;;;;;;;14.77;7.00;;;;;;;6.70;84.43;99953.22;5088148;28;20066;-66
2022/10/22 01:14:05;;;;;;;8.07;6.10;;;;;;;6.75;84.76;99981.50;5097977;28;20323;-65
2022/10/22 01:16:30;;;;;;;7.57;6.03;;;;;;;6.76;84.60;99979.81;5093630;28;20056;-65
2022/10/22 01:19:11;;;;;;;7.72;6.55;;;;;;;6.64;84.29;99952.34;5084511;28;20028;-65
2022/10/22 01:21:44;;;;;;;7.78;5.75;;;;;;;6.77;84.63;99978.94;5088222;28;20121;-65
2022/10/22 01:24:38;;;;;;;7.72;5.70;;;;;;;6.71;84.34;99969.50;5086367;28;20095;-65
2022/10/22 01:27:51;;;;;;;6.55;5.72;;;;;;;6.76;85.02;99972.09;5084383;28;20030;-64
2022/10/22 01:30:18;;;;;;;7.72;6.13;;;;;;;6.72;84.95;99976.38;5084129;28;20043;-65
2022/10/22 01:32:51;;;;;;;9.27;6.80;;;;;;;6.73;84.98;99976.34;5104377;28;20291;-65
2022/10/22 01:35:26;;;;;;;8.40;5.85;;;;;;;6.71;85.60;99970.38;5097806;28;183404;-65
2022/10/22 01:37:59;;;;;;;6.85;5.75;;;;;;;6.71;85.12;99978.09;5104324;28;20039;-65
2022/10/22 01:40:27;;;;;;;6.85;6.10;;;;;;;6.74;84.49;99979.78;5095029;28;20039;-64
2022/10/22 01:42:59;;;;;;;7.20;5.43;;;;;;;6.79;85.00;99990.94;5085304;28;20025;-65
2022/10/22 01:45:29;;;;;;;10.30;6.50;;;;;;;6.76;84.49;99972.09;5084928;28;20032;-65
2022/10/22 01:48:13;;;;;;;8.50;5.75;;;;;;;6.82;83.59;99975.50;5084715;28;20062;-65
2022/10/22 01:51:02;;;;;;;8.43;5.43;;;;;;;6.90;83.11;99988.38;5084759;28;20202;-65
2022/10/22 01:53:49;;;;;;;8.40;5.80;;;;;;;6.93;83.80;99983.22;5085012;28;20037;-65
2022/10/22 01:56:35;;;;;;;9.25;6.60;;;;;;;6.87;83.95;99976.34;5083589;28;20038;-65
2022/10/22 01:59:22;;;;;;;9.10;5.38;;;;;;;6.99;84.06;99990.06;5092306;28;20137;-65
2022/10/22 02:02:06;;;;;;;7.18;5.38;;;;;;;6.98;83.66;99986.59;5094218;28;20028;-65
2022/10/22 02:04:45;;;;;;;11.25;6.60;;;;;;;6.98;83.31;99983.19;5092142;28;20035;-64
2022/10/22 02:07:14;;;;;;;8.63;5.65;;;;;;;6.95;84.13;99983.19;5093688;28;20017;-66
2022/10/22 02:09:42;;;;;;;8.82;6.57;;;;;;;7.04;84.65;99994.34;5094291;28;20036;-65
2022/10/22 02:12:08;;;;;;;11.25;6.22;;;;;;;7.07;84.35;99994.34;5093030;28;20030;-65
2022/10/22 02:14:38;;;;;;;8.05;5.60;;;;;;;7.11;83.59;100002.03;5093854;28;20031;-66
2022/10/22 02:17:09;;;;;;;8.43;6.47;;;;;;;7.08;84.33;100001.22;5094415;28;20016;-65
2022/10/22 02:19:58;;;;;;;10.53;5.80;;;;;;;7.07;84.34;100004.63;5077437;28;20032;-66
2022/10/22 02:22:26;;;;;;;8.57;6.00;;;;;;;7.07;84.92;99998.63;5093014;28;20024;-66
2022/10/22 02:24:51;;;;;;;10.55;6.45;;;;;;;7.07;84.54;99998.63;5094912;28;20229;-66
2022/10/22 02:27:28;;;;;;;8.00;6.13;;;;;;;7.05;84.39;100001.22;5093599;28;20016;-64
2022/10/22 02:30:08;;;;;;;7.35;5.55;;;;;;;7.02;83.48;99983.16;5086755;28;20063;-66
2022/10/22 02:33:01;;;;;;;9.73;6.18;;;;;;;7.12;82.84;100004.63;5084171;28;20042;-66
2022/10/22 02:35:28;;;;;;;8.10;5.70;;;;;;;7.03;83.19;99984.91;5075764;28;20047;-65
2022/10/22 02:37:56;;;;;;;9.65;5.78;;;;;;;7.08;83.04;99997.75;5103774;28;20043;-66
2022/10/22 02:40:23;;;;;;;11.07;6.45;;;;;;;7.07;82.61;99998.63;5094907;28;20029;-65
2022/10/22 02:42:49;;;;;;;10.57;6.57;;;;;;;7.12;83.16;100007.19;5088441;28;20035;-64
2022/10/22 02:45:19;;;;;;;8.68;6.55;;;;;;;7.06;83.29;100009.78;5096940;28;20100;-64
2022/10/22 02:47:45;;;;;;;9.82;6.10;;;;;;;7.05;84.42;100006.38;5082221;28;20248;-64
2022/10/22 02:50:10;;;;;;;7.80;6.43;;;;;;;7.04;83.14;100009.78;5099783;28;20361;-65
2022/10/22 02:52:36;;;;;;;7.72;6.68;;;;;;;7.06;83.66;100014.94;5102378;28;20039;-67
2022/10/22 02:55:03;;;;;;;7.78;5.55;;;;;;;7.09;82.88;100013.19;5090274;28;20075;-67
2022/10/22 02:57:29;;;;;;;7.80;5.55;;;;;;;7.07;82.88;100008.94;5092871;28;20435;-67
2022/10/22 02:59:54;;;;;;;8.55;5.90;;;;;;;7.10;83.12;100014.06;5093036;28;20038;-67
2022/10/22 03:02:20;;;;;;;8.85;5.57;;;;;;;7.14;82.50;100017.50;5093904;28;20024;-67
2022/10/22 03:04:45;;;;;;;8.60;6.13;;;;;;;7.09;82.71;100017.50;5091930;28;20024;-67
2022/10/22 03:07:11;;;;;;;6.65;5.35;;;;;;;7.14;82.10;100010.63;5093569;28;20051;-67
2022/10/22 03:09:37;;;;;;;7.70;5.53;;;;;;;7.13;82.40;100010.66;5094953;28;20036;-67
2022/10/22 03:12:02;;;;;;;7.75;5.43;;;;;;;7.13;82.12;100020.94;5092764;28;20016;-67
2022/10/22 03:14:28;;;;;;;7.55;5.97;;;;;;;7.15;82.07;100019.22;5091571;28;20095;-67
2022/10/22 03:16:54;;;;;;;7.55;5.72;;;;;;;7.12;82.37;100014.91;5093520;28;20020;-68
2022/10/22 03:19:19;;;;;;;6.40;5.20;;;;;;;7.13;81.85;100008.06;5092188;28;20029;-68
2022/10/22 03:21:52;;;;;;;5.88;5.00;;;;;;;7.12;82.26;100011.50;5091966;28;20028;-66
2022/10/22 03:24:22;;;;;;;8.68;5.70;;;;;;;7.11;81.61;99999.47;5094491;28;20027;-66
2022/10/22 03:26:50;;;;;;;7.45;5.00;;;;;;;7.08;82.13;99992.59;5092706;28;20028;-67
2022/10/22 03:29:17;;;;;;;7.82;5.47;;;;;;;7.13;82.57;100002.91;5092321;28;20021;-67
2022/10/22 03:31:43;;;;;;;8.45;5.47;;;;;;;7.12;81.73;100006.34;5089090;28;20024;-68
2022/10/22 03:34:10;;;;;;;7.00;4.93;;;;;;;7.14;82.83;100009.75;5093507;28;20320;-66
2022/10/22 03:36:37;;;;;;;6.82;5.82;;;;;;;7.16;81.63;100013.22;5089647;28;20086;-67
2022/10/22 03:39:03;;;;;;;9.25;6.30;;;;;;;7.03;82.50;99996.91;5094406;28;20103;-67
2022/10/22 03:41:29;;;;;;;7.68;5.93;;;;;;;7.15;81.95;100007.19;5094717;28;20325;-67
2022/10/22 03:43:56;;;;;;;7.47;5.90;;;;;;;7.20;82.68;100013.19;5094497;28;20032;-66
2022/10/22 03:46:22;;;;;;;8.68;6.53;;;;;;;7.14;81.67;99999.47;5094429;28;20028;-67
2022/10/22 03:48:47;;;;;;;7.97;6.20;;;;;;;7.20;82.28;100017.50;5093419;28;20066;-66
2022/10/22 03:51:13;;;;;;;6.78;5.68;;;;;;;7.18;82.36;100006.31;5092829;28;20024;-67
2022/10/22 03:53:39;;;;;;;6.20;5.30;;;;;;;7.24;81.90;100009.75;5094569;28;20351;-67
2022/10/22 03:56:09;;;;;;;8.38;6.00;;;;;;;7.25;81.13;100008.91;5092763;28;20111;-67
2022/10/22 03:58:36;;;;;;;6.93;5.78;;;;;;;7.29;82.32;100011.47;5092402;28;20024;-67
2022/10/22 04:01:10;;;;;;;8.43;6.20;;;;;;;7.30;80.95;100011.44;5092575;28;20071;-67
2022/10/22 04:03:36;;;;;;;7.53;6.72;;;;;;;7.33;81.27;100015.75;5091426;28;20024;-67
2022/10/22 04:06:07;;;;;;;9.85;6.88;;;;;;;7.25;81.76;99998.59;5096384;28;20031;-67
2022/10/22 04:08:33;;;;;;;9.02;6.55;;;;;;;7.32;81.62;100008.88;5092598;28;20024;-66
2022/10/22 04:10:59;;;;;;;9.40;6.35;;;;;;;7.27;81.39;100011.47;5093123;28;20283;-67
2022/10/22 04:13:25;;;;;;;9.52;6.65;;;;;;;7.21;82.50;99999.47;5091639;28;20025;-67
2022/10/22 04:15:51;;;;;;;9.63;7.68;;;;;;;7.29;81.95;100012.31;5091364;28;20032;-67
2022/10/22 04:18:21;;;;;;;8.90;7.05;;;;;;;7.31;81.58;100010.59;5092249;28;20239;-67
2022/10/22 04:20:47;;;;;;;10.00;7.03;;;;;;;7.32;81.49;100008.88;5091651;28;20047;-67
2022/10/22 04:23:13;;;;;;;8.98;6.57;;;;;;;7.26;81.60;99999.44;5092440;28;20233;-66
2022/10/22 04:25:39;;;;;;;8.90;6.78;;;;;;;7.34;81.85;100010.59;5093142;28;20016;-67
2022/10/22 04:28:09;;;;;;;9.07;6.95;;;;;;;7.36;81.40;100011.41;5096346;28;20317;-67
2022/10/22 04:30:35;;;;;;;8.60;7.05;;;;;;;7.35;81.98;100012.28;5088073;28;20035;-67
2022/10/22 04:33:02;;;;;;;7.43;6.50;;;;;;;7.40;82.44;100013.13;5105449;28;20024;-66
2022/10/22 04:35:28;;;;;;;9.98;6.80;;;;;;;7.39;82.29;100021.72;5106632;28;20304;-67
2022/10/22 04:37:54;;;;;;;8.07;6.78;;;;;;;7.42;83.10;100013.13;5105297;28;20078;-66
2022/10/22 04:40:20;;;;;;;9.10;7.63;;;;;;;7.37;83.77;100015.72;5095071;28;20044;-67
2022/10/22 04:42:46;;;;;;;13.15;8.40;;;;;;;7.28;84.04;100000.28;5088776;28;20034;-67
2022/10/22 04:45:11;;;;;;;9.70;7.72;;;;;;;7.40;83.48;100022.59;5106360;28;20061;-67
2022/10/22 04:47:37;;;;;;;12.23;7.90;;;;;;;7.44;82.28;100024.31;5087390;28;20023;-67
2022/10/22 04:50:03;;;;;;;10.68;7.78;;;;;;;7.46;82.79;100026.88;5099733;28;20024;-67
2022/10/22 04:52:30;;;;;;;10.45;7.97;;;;;;;7.41;82.32;100025.16;5097197;28;20217;-67
2022/10/22 04:54:55;;;;;;;9.02;7.15;;;;;;;7.44;82.79;100026.88;5090216;28;20049;-67
2022/10/22 04:57:21;;;;;;;12.63;7.45;;;;;;;7.46;82.11;100027.72;5106269;28;20035;-68
2022/10/22 04:59:47;;;;;;;10.23;8.10;;;;;;;7.46;82.85;100021.72;5087759;28;20223;-67
2022/10/22 05:02:12;;;;;;;10.68;8.00;;;;;;;7.45;82.47;100017.41;5111111;28;20095;-67
2022/10/22 05:04:38;;;;;;;9.95;7.57;;;;;;;7.49;82.77;100024.28;5099528;28;20395;-67
2022/10/22 05:07:03;;;;;;;10.98;8.80;;;;;;;7.43;83.57;100026.00;5100424;28;20029;-67
2022/10/22 05:09:29;;;;;;;10.45;8.40;;;;;;;7.45;82.13;100020.84;5086361;28;20028;-67
2022/10/22 05:11:55;;;;;;;9.63;8.63;;;;;;;7.50;82.73;100024.28;5104713;28;20020;-67
2022/10/22 05:14:24;;;;;;;11.63;8.95;;;;;;;7.48;82.76;100040.59;5089659;28;20313;-67
2022/10/22 05:16:50;;;;;;;9.40;8.40;;;;;;;7.47;82.82;100038.88;5095884;28;20216;-67
2022/10/22 05:19:24;;;;;;;10.98;8.05;;;;;;;7.33;82.91;100023.47;5105828;28;20024;-66
2022/10/22 05:21:52;;;;;;;9.77;8.60;;;;;;;7.39;84.08;100036.31;5102048;28;20198;-67
2022/10/22 05:24:18;;;;;;;15.52;10.73;;;;;;;7.35;83.84;100040.63;5104479;28;20031;-68
2022/10/22 05:26:44;;;;;;;14.57;9.88;;;;;;;7.33;84.83;100042.34;5086299;28;20087;-68
2022/10/22 05:29:09;;;;;;;19.75;12.48;;;;;;;7.34;85.69;100046.66;5085868;28;20031;-66
2022/10/22 05:31:35;;;;;;;11.93;8.80;;;;;;;7.28;85.16;100031.19;5095798;28;20040;-68
2022/10/22 05:34:01;;;;;;;13.43;8.95;;;;;;;7.20;86.32;100040.69;5098686;28;20028;-67
2022/10/22 05:36:27;;;;;;;9.82;8.13;;;;;;;7.24;86.58;100045.81;5105222;28;20044;-67
2022/10/22 05:38:53;;;;;;;12.98;8.70;;;;;;;7.25;85.63;100047.53;5083799;28;20055;-67
2022/10/22 05:41:23;;;;;;;12.88;9.13;;;;;;;7.26;86.27;100046.66;5100741;28;20036;-67
2022/10/22 05:43:49;;;;;;;11.25;8.50;;;;;;;7.26;86.70;100045.81;5093625;28;20054;-68
2022/10/22 05:46:18;;;;;;;9.43;7.82;;;;;;;7.32;86.73;100048.34;5090246;28;20035;-67
2022/10/22 05:48:47;;;;;;;10.35;7.18;;;;;;;7.36;85.85;100050.06;5102599;28;20194;-68
2022/10/22 05:51:13;;;;;;;11.18;7.85;;;;;;;7.34;86.69;100044.06;5084899;28;20028;-68
2022/10/22 05:53:40;;;;;;;11.65;8.38;;;;;;;7.37;86.39;100056.09;5102914;28;20046;-69
2022/10/22 05:56:11;;;;;;;11.25;8.20;;;;;;;7.23;86.47;100038.09;5091441;28;20194;-67
2022/10/22 05:58:36;;;;;;;11.88;7.68;;;;;;;7.40;87.06;100058.66;5094007;28;20081;-68
2022/10/22 06:01:10;;;;;;;10.50;6.97;;;;;;;7.43;86.98;100049.19;5099567;28;20384;-68
2022/10/22 06:03:35;;;;;;;10.23;8.40;;;;;;;7.48;86.87;100049.19;5085128;28;20079;-68
2022/10/22 06:06:06;;;;;;;8.23;7.05;;;;;;;7.42;86.09;100032.03;5088222;28;20024;-69
2022/10/22 06:08:32;;;;;;;6.72;6.00;;;;;;;7.51;86.50;100059.50;5101815;28;20099;-69
2022/10/22 06:10:58;;;;;;;8.75;6.47;;;;;;;7.53;85.18;100051.75;5091795;28;20029;-68
2022/10/22 06:13:24;;;;;;;8.20;6.32;;;;;;;7.58;85.67;100050.00;5083165;28;20028;-69
2022/10/22 06:15:52;;;;;;;9.73;7.35;;;;;;;7.60;85.23;100045.72;5087020;28;20261;-68
2022/10/22 06:18:18;;;;;;;8.05;5.70;;;;;;;7.68;84.81;100051.72;5086397;28;20321;-69
2022/10/22 06:20:44;;;;;;;6.50;5.50;;;;;;;7.72;84.93;100048.22;5089687;28;20031;-68
2022/10/22 06:23:10;;;;;;;11.05;6.70;;;;;;;7.77;84.14;100049.06;5091386;28;20028;-68
2022/10/22 06:25:35;;;;;;;6.78;6.07;;;;;;;7.74;85.05;100059.41;5093485;28;20013;-68
2022/10/22 06:28:01;;;;;;;8.02;6.32;;;;;;;7.76;85.54;100057.66;5093105;28;20035;-68
2022/10/22 06:30:27;;;;;;;6.82;6.07;;;;;;;7.74;84.92;100050.81;5092871;28;20020;-68
2022/10/22 06:32:52;;;;;;;8.80;6.78;;;;;;;7.77;84.14;100061.13;5093309;28;20065;-68
2022/10/22 06:35:18;;;;;;;9.75;7.05;;;;;;;7.76;84.73;100055.09;5094685;28;20032;-67
2022/10/22 06:37:43;;;;;;;6.68;5.97;;;;;;;7.85;85.44;100059.38;5096746;28;20279;-68
2022/10/22 06:40:09;;;;;;;9.07;7.70;;;;;;;7.91;84.88;100063.66;5093963;28;20024;-66
2022/10/22 06:42:35;;;;;;;7.30;6.15;;;;;;;8.00;85.68;100071.34;5094925;28;20031;-68
2022/10/22 06:45:01;;;;;;;8.75;7.25;;;;;;;7.99;84.26;100064.44;5093566;28;20217;-68
2022/10/22 06:47:26;;;;;;;6.90;6.20;;;;;;;8.12;84.24;100065.25;5095424;28;20328;-69
2022/10/22 06:49:52;;;;;;;6.03;5.43;;;;;;;8.13;83.89;100072.13;5090617;28;20062;-68
2022/10/22 06:52:17;;;;;;;7.15;5.65;;;;;;;8.16;82.46;100069.53;5091646;28;20220;-69
2022/10/22 06:54:43;;;;;;;7.85;5.70;;;;;;;8.25;83.09;100073.78;5091643;28;20324;-72
2022/10/22 06:57:09;;;;;;;9.63;5.43;;;;;;;8.33;82.25;100073.75;5093834;28;20043;-69
2022/10/22 06:59:34;;;;;;;7.75;5.80;;;;;;;8.46;82.94;100075.41;5093830;28;20032;-69
2022/10/22 07:02:00;;;;;;;6.80;5.85;;;;;;;8.49;82.98;100074.53;5092586;28;20479;-69
2022/10/22 07:04:25;;;;;;;6.38;5.75;;;;;;;8.30;82.56;100072.88;5096261;28;20020;-69
2022/10/22 07:06:54;;;;;;;6.57;5.45;;;;;;;8.29;80.73;100066.03;5091593;28;20052;-68
2022/10/22 07:09:19;;;;;;;9.05;5.90;;;;;;;8.41;82.06;100069.41;5091943;28;20032;-68
2022/10/22 07:11:45;;;;;;;5.90;5.30;;;;;;;8.39;82.05;100078.88;5090325;28;20028;-68
2022/10/22 07:14:12;;;;;;;5.95;5.35;;;;;;;8.43;81.37;100080.56;5091455;28;20024;-70
2022/10/22 07:16:37;;;;;;;5.85;5.22;;;;;;;8.38;81.73;100078.03;5092040;28;20039;-69
2022/10/22 07:19:04;;;;;;;7.63;6.20;;;;;;;8.41;82.56;100077.16;5093845;28;20036;-68
2022/10/22 07:21:30;;;;;;;7.00;6.30;;;;;;;8.42;82.02;100078.84;5092828;28;20035;-69
2022/10/22 07:23:57;;;;;;;8.05;6.15;;;;;;;8.51;83.05;100080.53;5091773;28;20087;-69
2022/10/22 07:26:24;;;;;;;8.77;6.10;;;;;;;8.19;82.63;100076.41;5090671;28;20020;-69
2022/10/22 07:28:50;;;;;;;8.30;6.32;;;;;;;8.37;82.82;100085.78;5094449;28;20023;-69
2022/10/22 07:31:16;;;;;;;8.82;6.38;;;;;;;8.40;82.75;100086.59;5075318;28;20028;-70
2022/10/22 07:33:42;;;;;;;8.02;6.72;;;;;;;8.40;83.48;100083.16;5094103;28;20016;-68
2022/10/22 07:36:16;;;;;;;6.90;6.00;;;;;;;8.43;82.60;100071.09;5102886;28;20044;-68
2022/10/22 07:38:48;;;;;;;9.77;6.07;;;;;;;8.53;83.38;100086.56;5085443;28;20036;-69
2022/10/22 07:41:15;;;;;;;7.28;5.95;;;;;;;8.53;82.77;100068.50;5097029;28;20035;-70
2022/10/22 07:43:41;;;;;;;8.07;6.32;;;;;;;8.62;82.80;100076.16;5093841;28;20032;-68
2022/10/22 07:46:08;;;;;;;7.53;6.20;;;;;;;8.38;82.13;100077.13;5087262;28;20035;-70
2022/10/22 07:48:35;;;;;;;9.10;6.57;;;;;;;8.44;82.02;100084.88;5103320;28;20089;-69
2022/10/22 07:51:01;;;;;;;10.13;7.00;;;;;;;8.40;82.39;100078.84;5081594;28;20064;-69
2022/10/22 07:53:27;;;;;;;7.85;6.32;;;;;;;8.24;81.45;100077.25;5098223;28;20034;-69
2022/10/22 07:55:53;;;;;;;8.65;5.50;;;;;;;8.29;80.86;100089.25;5092145;28;20040;-69
2022/10/22 07:58:20;;;;;;;7.47;5.95;;;;;;;8.27;80.78;100083.22;5088657;28;20103;-69
2022/10/22 08:00:46;;;;;;;10.27;6.25;;;;;;;8.25;80.67;100089.25;5101617;28;20024;-69
2022/10/22 08:03:13;;;;;;;7.43;5.88;;;;;;;8.34;80.33;100091.81;5085209;28;20040;-69
2022/10/22 08:05:39;;;;;;;6.43;4.88;;;;;;;8.34;80.06;100090.91;5090562;28;20074;-69
2022/10/22 08:08:05;;;;;;;4.95;4.47;;;;;;;8.32;79.47;100078.03;5081186;28;20038;-69
2022/10/22 08:10:32;;;;;;;3.38;3.08;;;;;;;8.20;77.83;100089.28;5098083;28;20032;-69
2022/10/22 08:12:57;;;;;;;4.18;2.88;;;;;;;8.12;76.08;100081.59;5104730;28;20036;-69
2022/10/22 08:15:25;;;;;;;3.47;3.00;;;;;;;8.18;76.14;100078.13;5107070;28;20057;-69
2022/10/22 08:17:51;;;;;;;4.10;3.15;;;;;;;8.24;77.62;100083.25;5086749;28;20077;-69
2022/10/22 08:20:17;;;;;;;4.90;3.25;;;;;;;8.38;77.02;100082.31;5086600;28;20087;-68
2022/10/22 08:22:42;;;;;;;3.20;2.90;;;;;;;8.46;76.15;100085.72;5092209;28;20106;-68
2022/10/22 08:25:08;;;;;;;5.07;4.03;;;;;;;8.44;76.45;100078.00;5101364;28;20025;-69
2022/10/22 08:27:34;;;;;;;4.47;4.03;;;;;;;8.46;76.08;100081.44;5086276;28;20073;-69
2022/10/22 08:30:00;;;;;;;7.95;4.18;;;;;;;8.43;76.12;100083.16;5085803;28;20036;-68
2022/10/22 08:32:26;;;;;;;7.18;4.80;;;;;;;8.51;76.95;100084.00;5100877;28;20310;-69
2022/10/22 08:34:52;;;;;;;5.97;4.63;;;;;;;8.53;74.92;100086.56;5106318;28;20316;-68
2022/10/22 08:37:17;;;;;;;6.82;4.50;;;;;;;8.66;75.73;100082.16;5106883;28;20099;-70
2022/10/22 08:39:44;;;;;;;4.93;4.38;;;;;;;8.76;77.09;100074.31;5105685;28;20051;-70
2022/10/22 08:42:34;;;;;;;8.57;5.00;;;;;;;8.85;75.67;100086.34;5085998;28;20059;-69
2022/10/22 08:45:21;;;;;;;6.13;4.47;;;;;;;8.95;76.49;100082.81;5105955;28;20050;-69
2022/10/22 08:47:58;;;;;;;6.60;5.05;;;;;;;8.75;75.57;100070.06;5087904;28;20031;-69
2022/10/22 08:50:32;;;;;;;7.38;4.40;;;;;;;8.84;75.41;100070.84;5096307;28;20036;-70
2022/10/22 08:53:03;;;;;;;6.47;4.88;;;;;;;8.95;76.34;100085.38;5094823;28;20032;-69
2022/10/22 08:55:30;;;;;;;9.07;5.13;;;;;;;8.98;75.13;100084.50;5092817;28;20032;-69
2022/10/22 08:58:16;;;;;;;7.30;4.57;;;;;;;9.05;74.20;100073.25;5103594;28;20024;-69
2022/10/22 09:00:48;;;;;;;6.25;5.03;;;;;;;8.95;73.32;100054.38;5085746;28;20056;-69
2022/10/22 09:03:53;;;;;;;7.15;5.13;;;;;;;9.06;75.27;100072.34;5106075;28;20030;-68
2022/10/22 09:06:26;;;;;;;7.05;5.13;;;;;;;9.01;74.80;100066.41;5103375;28;20059;-69
2022/10/22 09:08:53;;;;;;;6.20;4.72;;;;;;;8.91;74.45;100070.78;5087463;28;20052;-69
2022/10/22 09:11:37;;;;;;;11.38;4.45;;;;;;;8.88;74.03;100062.19;5104834;28;20087;-69
2022/10/22 09:14:04;;;;;;;9.27;4.60;;;;;;;8.90;74.41;100068.22;5094255;28;20028;-70
2022/10/22 09:16:57;;;;;;;5.03;3.78;;;;;;;8.90;74.45;100070.78;5092261;28;20040;-69
2022/10/22 09:19:38;;;;;;;3.80;3.40;;;;;;;8.72;72.35;100054.59;5100022;28;20045;-69
2022/10/22 09:22:26;;;;;;;8.33;3.13;;;;;;;8.72;73.06;100064.91;5087898;28;20031;-70
2022/10/22 09:25:00;;;;;;;4.55;3.20;;;;;;;8.74;73.15;100073.50;5086163;28;20020;-69
2022/10/22 09:27:29;;;;;;;6.22;3.17;;;;;;;8.59;74.75;100056.41;5105583;28;20024;-69
2022/10/22 09:29:55;;;;;;;3.70;3.40;;;;;;;8.62;73.89;100058.09;5102643;28;20071;-69
2022/10/22 09:32:20;;;;;;;5.07;3.10;;;;;;;8.72;74.73;100061.47;5091567;28;20040;-70
2022/10/22 09:34:48;;;;;;;5.57;3.70;;;;;;;8.68;75.33;100072.66;5105013;28;20356;-69
2022/10/22 09:37:17;;;;;;;5.40;4.10;;;;;;;8.61;74.22;100052.06;5105164;28;20041;-70
2022/10/22 09:39:45;;;;;;;5.70;3.90;;;;;;;8.69;75.48;100056.31;5105287;28;20036;-69
2022/10/22 09:42:15;;;;;;;4.50;4.07;;;;;;;8.74;75.34;100062.31;5084838;28;20066;-69
2022/10/22 09:44:41;;;;;;;8.73;4.50;;;;;;;8.67;75.96;100061.50;5101285;28;20032;-69
2022/10/22 09:47:33;;;;;;;5.55;4.13;;;;;;;8.59;74.15;100061.56;5091844;28;20343;-69
2022/10/22 09:50:49;;;;;;;8.93;4.55;;;;;;;8.66;74.04;100069.25;5095107;28;20077;-69
2022/10/22 09:53:17;;;;;;;5.00;4.50;;;;;;;8.72;74.22;100061.47;5051327;28;20041;-69
2022/10/22 09:55:47;;;;;;;5.97;4.28;;;;;;;8.72;73.80;100064.03;5092677;28;20040;-69
2022/10/22 09:58:13;;;;;;;4.50;4.10;;;;;;;8.77;75.22;100065.72;5100593;28;20048;-70
2022/10/22 10:00:43;;;;;;;7.05;4.63;;;;;;;8.63;75.02;100042.56;5084751;28;20035;-68
2022/10/22 10:03:17;;;;;;;7.75;3.78;;;;;;;8.70;73.27;100047.72;5104880;28;20034;-69
2022/10/22 10:05:48;;;;;;;6.45;4.00;;;;;;;8.84;73.65;100058.78;5087970;28;20035;-69
2022/10/22 10:08:15;;;;;;;4.80;4.05;;;;;;;8.72;73.49;100058.88;5096762;28;20023;-69
2022/10/22 10:10:58;;;;;;;5.10;4.38;;;;;;;8.60;73.97;100040.03;5097042;28;20036;-69
2022/10/22 10:13:30;;;;;;;7.55;4.35;;;;;;;8.80;74.86;100055.34;5088694;28;20094;-70
2022/10/22 10:15:55;;;;;;;;;;;;;;;8.82;74.18;100055.34;5103842;28;20335;-68
2022/10/22 10:18:27;;;;;;;5.22;4.45;;;;;;;8.94;73.94;100051.81;5084582;28;19905;-69
2022/10/22 10:21:29;;;;;;;7.55;4.88;;;;;;;9.06;74.37;100048.25;5084234;28;20079;-69
2022/10/22 10:24:13;;;;;;;;;;;;;;;9.08;74.20;100049.97;5064003;28;20317;-70
2022/10/22 10:26:58;;;;;;;6.60;3.97;;;;;;;9.06;72.86;100048.25;5099617;28;19912;-69
2022/10/22 10:30:15;;;;;;;8.70;3.67;;;;;;;9.07;73.00;100047.41;5088613;28;20119;-69
2022/10/22 10:33:14;;;;;;;5.55;3.70;;;;;;;9.10;72.31;100048.22;5018200;28;20034;-69
2022/10/22 10:36:11;;;;;;;6.57;3.80;;;;;;;9.06;72.32;100046.53;5082600;28;20048;-69
2022/10/22 10:38:57;;;;;;;5.70;3.50;;;;;;;9.00;72.02;100045.75;5098275;28;20059;-69
2022/10/22 10:41:52;;;;;;;6.05;4.13;;;;;;;9.15;72.62;100046.44;5090765;28;20043;-69
2022/10/22 10:44:37;;;;;;;3.92;3.17;;;;;;;9.02;71.63;100036.25;5085336;28;20077;-70
2022/10/22 10:47:33;;;;;;;7.40;3.78;;;;;;;9.07;72.17;100025.00;5092852;28;20032;-70
2022/10/22 10:50:31;;;;;;;5.53;4.32;;;;;;;9.08;72.42;100029.28;5075708;28;20089;-69
2022/10/22 10:53:16;;;;;;;6.60;3.53;;;;;;;9.11;73.11;100031.84;5094298;28;20332;-69
2022/10/22 10:56:17;;;;;;;4.63;3.97;;;;;;;8.92;71.58;100025.13;5089341;28;20059;-70
2022/10/22 10:58:54;;;;;;;6.67;3.90;;;;;;;9.02;72.29;100036.25;5064310;28;20068;-69
2022/10/22 11:01:41;;;;;;;5.63;4.00;;;;;;;8.97;72.57;100034.56;5086503;28;20036;-70
2022/10/22 11:04:43;;;;;;;7.63;4.43;;;;;;;9.00;72.71;100035.41;5100859;28;20046;-70
2022/10/22 11:07:14;;;;;;;7.97;4.75;;;;;;;8.91;73.94;100015.69;5092540;28;20423;-69
2022/10/22 11:09:48;;;;;;;8.93;4.43;;;;;;;9.08;73.41;100021.53;5088624;28;20040;-70
2022/10/22 11:12:26;;;;;;;7.95;5.55;;;;;;;8.97;73.19;100021.63;5089918;28;20034;-68
2022/10/22 11:15:06;;;;;;;9.05;5.32;;;;;;;9.08;72.93;100029.28;5090641;28;20046;-69
2022/10/22 11:17:39;;;;;;;6.80;4.85;;;;;;;8.92;73.14;100015.69;5102045;28;20045;-69
2022/10/22 11:20:18;;;;;;;8.02;5.18;;;;;;;8.85;73.61;100014.03;5094840;28;20027;-69
2022/10/22 11:22:54;;;;;;;5.88;4.10;;;;;;;8.88;72.37;100021.75;5094711;28;20356;-68
2022/10/22 11:25:42;;;;;;;9.25;4.60;;;;;;;8.89;72.46;100026.03;5083040;28;20537;-68
2022/10/22 11:28:13;;;;;;;6.05;4.05;;;;;;;8.78;72.40;100025.28;5082971;28;20032;-68
2022/10/22 11:30:42;;;;;;;8.15;4.18;;;;;;;8.87;73.75;100025.19;5083083;28;20092;-70
2022/10/22 11:33:15;;;;;;;8.07;3.92;;;;;;;8.86;73.82;99996.78;5089023;28;20038;-69
2022/10/22 11:35:43;;;;;;;6.53;4.20;;;;;;;8.97;72.91;100008.72;5103250;28;20047;-68
2022/10/22 11:38:16;;;;;;;6.55;4.60;;;;;;;9.02;72.68;100019.03;5098431;28;20059;-69
2022/10/22 11:41:07;;;;;;;8.18;4.20;;;;;;;8.93;73.32;99995.84;5100296;28;20036;-69
2022/10/22 11:43:50;;;;;;;7.82;4.28;;;;;;;9.07;72.94;100012.06;5082019;28;20040;-68
2022/10/22 11:46:16;;;;;;;7.57;4.32;;;;;;;9.05;72.86;100013.84;5103850;28;20320;-69
2022/10/22 11:48:42;;;;;;;7.85;4.60;;;;;;;9.03;73.15;100005.22;5085581;28;20032;-69
2022/10/22 11:51:37;;;;;;;7.15;4.47;;;;;;;9.03;71.51;100010.38;5106108;28;20048;-70
2022/10/22 11:54:29;;;;;;;7.65;4.30;;;;;;;9.09;72.27;100005.19;5087627;28;20032;-69